sensor_id;sensor_type;location;lat;lon;timestamp;pressure;altitude;pressure_sealevel;temperature;humidity
13869;BME280;7004;48.206;16.402;2023-07-22T00:01:43;99305.44;;;22.22;58.95
13869;BME280;7004;48.206;16.402;2023-07-22T00:04:09;99306.94;;;22.24;59.13
13869;BME280;7004;48.206;16.402;2023-07-22T00:06:35;99311.88;;;22.21;58.61
13869;BME280;7004;48.206;16.402;2023-07-22T00:09:01;99312.16;;;22.18;58.90
13869;BME280;7004;48.206;16.402;2023-07-22T00:11:28;99322.47;;;22.14;58.97
13869;BME280;7004;48.206;16.402;2023-07-22T00:13:54;99323.63;;;21.97;59.64
13869;BME280;7004;48.206;16.402;2023-07-22T00:16:21;99337.50;;;22.09;59.44
13869;BME280;7004;48.206;16.402;2023-07-22T00:18:47;99333.09;;;21.93;59.54
13869;BME280;7004;48.206;16.402;2023-07-22T00:21:16;99336.47;;;22.10;59.31
13869;BME280;7004;48.206;16.402;2023-07-22T00:23:42;99348.72;;;22.12;59.11
13869;BME280;7004;48.206;16.402;2023-07-22T00:26:08;99339.34;;;22.08;59.30
13869;BME280;7004;48.206;16.402;2023-07-22T00:28:35;99348.78;;;21.81;60.61
13869;BME280;7004;48.206;16.402;2023-07-22T00:31:03;99351.47;;;21.81;60.31
13869;BME280;7004;48.206;16.402;2023-07-22T00:33:29;99349.59;;;21.90;60.13
13869;BME280;7004;48.206;16.402;2023-07-22T00:35:55;99350.53;;;21.74;60.82
13869;BME280;7004;48.206;16.402;2023-07-22T00:38:21;99354.00;;;21.83;60.71
13869;BME280;7004;48.206;16.402;2023-07-22T00:40:47;99363.41;;;21.55;61.38
13869;BME280;7004;48.206;16.402;2023-07-22T00:43:14;99362.13;;;21.74;60.49
13869;BME280;7004;48.206;16.402;2023-07-22T00:45:40;99363.28;;;21.80;59.73
13869;BME280;7004;48.206;16.402;2023-07-22T00:48:06;99372.50;;;22.09;60.45
13869;BME280;7004;48.206;16.402;2023-07-22T00:50:33;99363.28;;;21.80;59.63
13869;BME280;7004;48.206;16.402;2023-07-22T00:52:59;99355.00;;;21.58;60.20
13869;BME280;7004;48.206;16.402;2023-07-22T00:55:26;99360.72;;;21.55;60.29
13869;BME280;7004;48.206;16.402;2023-07-22T00:57:55;99371.34;;;21.80;58.64
13869;BME280;7004;48.206;16.402;2023-07-22T01:00:21;99381.75;;;21.52;59.99
13869;BME280;7004;48.206;16.402;2023-07-22T01:02:49;99401.16;;;21.39;60.12
13869;BME280;7004;48.206;16.402;2023-07-22T01:05:15;99391.38;;;21.46;60.24
13869;BME280;7004;48.206;16.402;2023-07-22T01:07:42;99397.59;;;21.47;60.78
13869;BME280;7004;48.206;16.402;2023-07-22T01:10:08;99409.38;;;21.46;60.37
13869;BME280;7004;48.206;16.402;2023-07-22T01:12:35;99419.94;;;21.47;60.67
13869;BME280;7004;48.206;16.402;2023-07-22T01:15:02;99428.19;;;21.29;61.30
13869;BME280;7004;48.206;16.402;2023-07-22T01:17:36;99426.69;;;21.27;60.94
13869;BME280;7004;48.206;16.402;2023-07-22T01:20:03;99420.75;;;21.56;60.21
13869;BME280;7004;48.206;16.402;2023-07-22T01:22:29;99433.25;;;21.41;60.49
13869;BME280;7004;48.206;16.402;2023-07-22T01:24:56;99444.16;;;21.39;60.93
13869;BME280;7004;48.206;16.402;2023-07-22T01:27:22;99449.59;;;21.14;61.18
13869;BME280;7004;48.206;16.402;2023-07-22T01:29:51;99456.78;;;21.14;60.66
13869;BME280;7004;48.206;16.402;2023-07-22T01:32:18;99456.28;;;21.74;59.31
13869;BME280;7004;48.206;16.402;2023-07-22T01:34:46;99477.75;;;21.27;59.68
13869;BME280;7004;48.206;16.402;2023-07-22T01:37:12;99477.09;;;21.33;60.03
13869;BME280;7004;48.206;16.402;2023-07-22T01:39:38;99485.81;;;21.35;59.95
13869;BME280;7004;48.206;16.402;2023-07-22T01:42:04;99483.50;;;21.79;59.98
13869;BME280;7004;48.206;16.402;2023-07-22T01:44:31;99498.75;;;21.40;60.15
13869;BME280;7004;48.206;16.402;2023-07-22T01:46:57;99504.31;;;21.30;60.62
13869;BME280;7004;48.206;16.402;2023-07-22T01:49:23;99520.28;;;21.40;60.86
13869;BME280;7004;48.206;16.402;2023-07-22T01:51:50;99519.41;;;21.47;60.99
13869;BME280;7004;48.206;16.402;2023-07-22T01:54:16;99528.13;;;21.57;61.54
13869;BME280;7004;48.206;16.402;2023-07-22T01:56:43;99519.81;;;21.03;63.51
13869;BME280;7004;48.206;16.402;2023-07-22T01:59:09;99523.47;;;21.27;63.34
13869;BME280;7004;48.206;16.402;2023-07-22T02:01:36;99520.31;;;21.07;63.87
13869;BME280;7004;48.206;16.402;2023-07-22T02:04:02;99519.97;;;21.10;64.27
13869;BME280;7004;48.206;16.402;2023-07-22T02:06:28;99520.00;;;20.93;64.84
13869;BME280;7004;48.206;16.402;2023-07-22T02:08:54;99518.28;;;21.09;64.46
13869;BME280;7004;48.206;16.402;2023-07-22T02:11:21;99520.09;;;21.33;63.52
13869;BME280;7004;48.206;16.402;2023-07-22T02:13:48;99524.50;;;21.17;63.56
13869;BME280;7004;48.206;16.402;2023-07-22T02:16:15;99531.22;;;21.30;63.73
13869;BME280;7004;48.206;16.402;2023-07-22T02:18:42;99516.94;;;21.85;64.71
13869;BME280;7004;48.206;16.402;2023-07-22T02:21:08;99532.06;;;21.38;63.87
13869;BME280;7004;48.206;16.402;2023-07-22T02:23:35;99532.78;;;21.72;64.27
13869;BME280;7004;48.206;16.402;2023-07-22T02:26:01;99540.31;;;21.04;65.53
13869;BME280;7004;48.206;16.402;2023-07-22T02:28:27;99542.66;;;21.07;65.27
13869;BME280;7004;48.206;16.402;2023-07-22T02:30:54;99545.00;;;21.02;65.78
13869;BME280;7004;48.206;16.402;2023-07-22T02:33:21;99545.50;;;20.89;66.01
13869;BME280;7004;48.206;16.402;2023-07-22T02:35:48;99547.69;;;21.10;65.65
13869;BME280;7004;48.206;16.402;2023-07-22T02:38:15;99545.00;;;21.02;66.00
13869;BME280;7004;48.206;16.402;2023-07-22T02:40:41;99539.97;;;20.99;66.16
13869;BME280;7004;48.206;16.402;2023-07-22T02:43:08;99538.59;;;21.11;65.99
13869;BME280;7004;48.206;16.402;2023-07-22T02:45:35;99547.88;;;20.68;66.77
13869;BME280;7004;48.206;16.402;2023-07-22T02:48:02;99548.34;;;20.88;66.81
13869;BME280;7004;48.206;16.402;2023-07-22T02:50:29;99548.88;;;20.83;66.82
13869;BME280;7004;48.206;16.402;2023-07-22T02:52:55;99556.75;;;20.93;66.66
13869;BME280;7004;48.206;16.402;2023-07-22T02:55:22;99552.06;;;20.87;66.85
13869;BME280;7004;48.206;16.402;2023-07-22T02:57:49;99559.63;;;20.83;66.98
13869;BME280;7004;48.206;16.402;2023-07-22T03:00:18;99556.56;;;20.70;67.37
13869;BME280;7004;48.206;16.402;2023-07-22T03:02:55;99560.47;;;20.92;66.51
13869;BME280;7004;48.206;16.402;2023-07-22T03:05:30;99574.88;;;20.75;66.94
13869;BME280;7004;48.206;16.402;2023-07-22T03:07:57;99570.63;;;21.70;66.54
13869;BME280;7004;48.206;16.402;2023-07-22T03:10:23;99567.84;;;20.82;67.07
13869;BME280;7004;48.206;16.402;2023-07-22T03:12:51;99574.97;;;21.71;65.78
13869;BME280;7004;48.206;16.402;2023-07-22T03:15:24;99575.06;;;20.81;67.01
13869;BME280;7004;48.206;16.402;2023-07-22T03:17:54;99575.38;;;20.62;67.64
13869;BME280;7004;48.206;16.402;2023-07-22T03:20:28;99569.34;;;21.01;66.63
13869;BME280;7004;48.206;16.402;2023-07-22T03:22:54;99565.31;;;20.80;67.12
13869;BME280;7004;48.206;16.402;2023-07-22T03:25:20;99562.63;;;20.64;67.77
13869;BME280;7004;48.206;16.402;2023-07-22T03:27:46;99553.22;;;20.92;67.05
13869;BME280;7004;48.206;16.402;2023-07-22T03:30:18;99567.34;;;20.86;66.87
13869;BME280;7004;48.206;16.402;2023-07-22T03:32:45;99578.56;;;21.06;66.53
13869;BME280;7004;48.206;16.402;2023-07-22T03:35:14;99577.41;;;20.92;67.00
13869;BME280;7004;48.206;16.402;2023-07-22T03:37:40;99569.84;;;20.71;67.07
13869;BME280;7004;48.206;16.402;2023-07-22T03:40:07;99568.19;;;20.79;66.50
13869;BME280;7004;48.206;16.402;2023-07-22T03:42:41;99573.03;;;21.16;65.88
13869;BME280;7004;48.206;16.402;2023-07-22T03:45:08;99568.84;;;21.05;65.45
13869;BME280;7004;48.206;16.402;2023-07-22T03:47:35;99560.56;;;22.43;66.79
13869;BME280;7004;48.206;16.402;2023-07-22T03:50:02;99561.84;;;22.24;63.89
13869;BME280;7004;48.206;16.402;2023-07-22T03:52:28;99570.75;;;22.24;63.06
13869;BME280;7004;48.206;16.402;2023-07-22T03:54:54;99572.63;;;22.16;62.36
13869;BME280;7004;48.206;16.402;2023-07-22T03:57:26;99571.78;;;22.15;60.96
13869;BME280;7004;48.206;16.402;2023-07-22T03:59:54;99572.09;;;21.81;61.20
13869;BME280;7004;48.206;16.402;2023-07-22T04:02:20;99574.19;;;21.22;61.73
13869;BME280;7004;48.206;16.402;2023-07-22T04:04:46;99579.44;;;21.07;63.34
13869;BME280;7004;48.206;16.402;2023-07-22T04:07:12;99585.63;;;21.56;61.97
13869;BME280;7004;48.206;16.402;2023-07-22T04:09:38;99588.50;;;20.98;64.40
13869;BME280;7004;48.206;16.402;2023-07-22T04:12:05;99599.22;;;21.63;61.26
13869;BME280;7004;48.206;16.402;2023-07-22T04:14:31;99586.31;;;22.06;61.52
13869;BME280;7004;48.206;16.402;2023-07-22T04:16:57;99593.19;;;21.61;61.98
13869;BME280;7004;48.206;16.402;2023-07-22T04:19:23;99585.47;;;20.84;64.45
13869;BME280;7004;48.206;16.402;2023-07-22T04:21:50;99589.94;;;21.74;62.08
13869;BME280;7004;48.206;16.402;2023-07-22T04:24:16;99588.56;;;21.86;60.92
13869;BME280;7004;48.206;16.402;2023-07-22T04:26:44;99587.66;;;21.05;63.05
13869;BME280;7004;48.206;16.402;2023-07-22T04:29:11;99589.34;;;21.39;62.70
13869;BME280;7004;48.206;16.402;2023-07-22T04:31:38;99597.78;;;21.92;61.72
13869;BME280;7004;48.206;16.402;2023-07-22T04:34:05;99590.53;;;21.20;61.55
13869;BME280;7004;48.206;16.402;2023-07-22T04:36:32;99589.34;;;22.03;61.04
13869;BME280;7004;48.206;16.402;2023-07-22T04:38:58;99598.47;;;22.33;58.91
13869;BME280;7004;48.206;16.402;2023-07-22T04:41:24;99611.53;;;21.25;61.10
13869;BME280;7004;48.206;16.402;2023-07-22T04:43:51;99612.44;;;21.81;60.31
13869;BME280;7004;48.206;16.402;2023-07-22T04:46:17;99619.91;;;21.13;62.30
13869;BME280;7004;48.206;16.402;2023-07-22T04:48:43;99617.50;;;20.69;62.99
13869;BME280;7004;48.206;16.402;2023-07-22T04:51:09;99623.69;;;21.93;59.21
13869;BME280;7004;48.206;16.402;2023-07-22T04:53:35;99616.69;;;21.67;60.29
13869;BME280;7004;48.206;16.402;2023-07-22T04:56:01;99621.13;;;21.99;59.85
13869;BME280;7004;48.206;16.402;2023-07-22T04:58:28;99633.47;;;21.86;59.67
13869;BME280;7004;48.206;16.402;2023-07-22T05:00:54;99626.63;;;21.26;60.46
13869;BME280;7004;48.206;16.402;2023-07-22T05:03:20;99619.75;;;21.48;61.32
13869;BME280;7004;48.206;16.402;2023-07-22T05:05:46;99613.84;;;21.36;62.01
13869;BME280;7004;48.206;16.402;2023-07-22T05:08:14;99620.72;;;20.73;62.93
13869;BME280;7004;48.206;16.402;2023-07-22T05:10:40;99615.22;;;21.40;62.22
13869;BME280;7004;48.206;16.402;2023-07-22T05:13:07;99609.84;;;21.48;61.72
13869;BME280;7004;48.206;16.402;2023-07-22T05:15:33;99614.84;;;22.15;58.86
13869;BME280;7004;48.206;16.402;2023-07-22T05:17:59;99612.88;;;22.09;59.19
13869;BME280;7004;48.206;16.402;2023-07-22T05:20:25;99615.03;;;21.25;61.34
13869;BME280;7004;48.206;16.402;2023-07-22T05:22:51;99615.19;;;21.65;60.51
13869;BME280;7004;48.206;16.402;2023-07-22T05:25:18;99615.19;;;21.65;61.04
13869;BME280;7004;48.206;16.402;2023-07-22T05:27:44;99615.56;;;21.53;60.87
13869;BME280;7004;48.206;16.402;2023-07-22T05:30:10;99603.63;;;22.03;59.17
13869;BME280;7004;48.206;16.402;2023-07-22T05:32:36;99606.91;;;22.30;59.56
13869;BME280;7004;48.206;16.402;2023-07-22T05:35:03;99610.84;;;21.23;62.01
13869;BME280;7004;48.206;16.402;2023-07-22T05:37:31;99605.81;;;21.44;62.90
13869;BME280;7004;48.206;16.402;2023-07-22T05:39:57;99617.91;;;21.40;61.52
13869;BME280;7004;48.206;16.402;2023-07-22T05:42:23;99625.94;;;21.73;61.41
13869;BME280;7004;48.206;16.402;2023-07-22T05:44:50;99623.59;;;21.12;62.97
13869;BME280;7004;48.206;16.402;2023-07-22T05:47:16;99629.00;;;22.09;60.13
13869;BME280;7004;48.206;16.402;2023-07-22T05:49:42;99619.34;;;22.39;58.95
13869;BME280;7004;48.206;16.402;2023-07-22T05:52:08;99614.94;;;21.91;60.61
13869;BME280;7004;48.206;16.402;2023-07-22T05:54:34;99620.41;;;21.25;62.00
13869;BME280;7004;48.206;16.402;2023-07-22T05:57:00;99625.81;;;21.17;62.84
13869;BME280;7004;48.206;16.402;2023-07-22T05:59:26;99619.53;;;21.82;60.35
13869;BME280;7004;48.206;16.402;2023-07-22T06:01:52;99626.47;;;22.24;58.71
13869;BME280;7004;48.206;16.402;2023-07-22T06:04:19;99627.13;;;22.18;58.42
13869;BME280;7004;48.206;16.402;2023-07-22T06:06:45;99632.13;;;21.73;60.13
13869;BME280;7004;48.206;16.402;2023-07-22T06:09:11;99626.81;;;21.32;61.30
13869;BME280;7004;48.206;16.402;2023-07-22T06:11:37;99631.97;;;22.39;58.95
13869;BME280;7004;48.206;16.402;2023-07-22T06:14:03;99627.69;;;21.97;59.57
13869;BME280;7004;48.206;16.402;2023-07-22T06:16:29;99628.25;;;21.76;59.78
13869;BME280;7004;48.206;16.402;2023-07-22T06:18:55;99619.19;;;22.33;57.95
13869;BME280;7004;48.206;16.402;2023-07-22T06:21:21;99635.84;;;22.28;58.65
13869;BME280;7004;48.206;16.402;2023-07-22T06:23:47;99638.88;;;22.33;57.43
13869;BME280;7004;48.206;16.402;2023-07-22T06:26:14;99635.19;;;22.18;57.46
13869;BME280;7004;48.206;16.402;2023-07-22T06:28:40;99628.97;;;22.34;56.28
13869;BME280;7004;48.206;16.402;2023-07-22T06:31:06;99644.56;;;23.24;55.05
13869;BME280;7004;48.206;16.402;2023-07-22T06:33:34;99656.16;;;23.09;55.04
13869;BME280;7004;48.206;16.402;2023-07-22T06:36:00;99651.13;;;22.36;55.44
13869;BME280;7004;48.206;16.402;2023-07-22T06:38:26;99648.53;;;22.82;53.87
13869;BME280;7004;48.206;16.402;2023-07-22T06:40:53;99649.97;;;22.69;53.10
13869;BME280;7004;48.206;16.402;2023-07-22T06:43:19;99641.47;;;23.12;50.77
13869;BME280;7004;48.206;16.402;2023-07-22T06:45:45;99661.03;;;22.83;51.67
13869;BME280;7004;48.206;16.402;2023-07-22T06:48:11;99664.34;;;22.85;51.65
13869;BME280;7004;48.206;16.402;2023-07-22T06:50:37;99671.63;;;23.68;49.76
13869;BME280;7004;48.206;16.402;2023-07-22T06:53:03;99685.09;;;24.36;48.16
13869;BME280;7004;48.206;16.402;2023-07-22T06:55:30;99684.63;;;23.73;49.14
13869;BME280;7004;48.206;16.402;2023-07-22T06:57:56;99688.50;;;22.78;49.37
13869;BME280;7004;48.206;16.402;2023-07-22T07:00:23;99685.06;;;23.39;48.42
13869;BME280;7004;48.206;16.402;2023-07-22T07:02:50;99684.22;;;23.38;48.23
13869;BME280;7004;48.206;16.402;2023-07-22T07:05:16;99697.59;;;24.22;46.34
13869;BME280;7004;48.206;16.402;2023-07-22T07:07:43;99681.91;;;23.73;47.07
13869;BME280;7004;48.206;16.402;2023-07-22T07:10:09;99678.19;;;24.78;45.54
13869;BME280;7004;48.206;16.402;2023-07-22T07:12:36;99676.47;;;23.96;46.42
13869;BME280;7004;48.206;16.402;2023-07-22T07:15:02;99690.25;;;24.60;45.66
13869;BME280;7004;48.206;16.402;2023-07-22T07:17:28;99684.81;;;25.12;45.23
13869;BME280;7004;48.206;16.402;2023-07-22T07:19:54;99680.88;;;25.57;43.95
13869;BME280;7004;48.206;16.402;2023-07-22T07:22:20;99686.63;;;25.97;43.07
13869;BME280;7004;48.206;16.402;2023-07-22T07:24:47;99683.31;;;25.52;42.78
13869;BME280;7004;48.206;16.402;2023-07-22T07:27:13;99684.22;;;26.15;41.66
13869;BME280;7004;48.206;16.402;2023-07-22T07:29:39;99676.97;;;26.57;39.77
13869;BME280;7004;48.206;16.402;2023-07-22T07:32:06;99685.22;;;26.08;40.53
13869;BME280;7004;48.206;16.402;2023-07-22T07:34:33;99682.19;;;26.66;39.23
13869;BME280;7004;48.206;16.402;2023-07-22T07:36:59;99680.59;;;26.36;40.96
13869;BME280;7004;48.206;16.402;2023-07-22T07:39:25;99686.16;;;26.63;38.93
13869;BME280;7004;48.206;16.402;2023-07-22T07:41:51;99685.91;;;25.88;40.38
13869;BME280;7004;48.206;16.402;2023-07-22T07:44:17;99685.75;;;25.68;41.17
13869;BME280;7004;48.206;16.402;2023-07-22T07:46:43;99687.41;;;25.69;40.77
13869;BME280;7004;48.206;16.402;2023-07-22T07:49:09;99680.13;;;26.26;39.57
13869;BME280;7004;48.206;16.402;2023-07-22T07:51:35;99675.50;;;26.55;39.72
13869;BME280;7004;48.206;16.402;2023-07-22T07:54:01;99669.88;;;27.58;37.80
13869;BME280;7004;48.206;16.402;2023-07-22T07:56:29;99677.16;;;27.57;38.41
13869;BME280;7004;48.206;16.402;2023-07-22T07:58:56;99688.84;;;27.31;38.50
13869;BME280;7004;48.206;16.402;2023-07-22T08:01:22;99694.72;;;26.67;38.02
13869;BME280;7004;48.206;16.402;2023-07-22T08:03:49;99697.38;;;28.28;37.47
13869;BME280;7004;48.206;16.402;2023-07-22T08:06:15;99701.03;;;26.46;38.23
13869;BME280;7004;48.206;16.402;2023-07-22T08:08:41;99695.97;;;27.32;37.09
13869;BME280;7004;48.206;16.402;2023-07-22T08:11:11;99694.91;;;27.80;37.58
13869;BME280;7004;48.206;16.402;2023-07-22T08:13:40;99693.25;;;27.79;37.19
13869;BME280;7004;48.206;16.402;2023-07-22T08:16:09;99709.94;;;26.68;38.76
13869;BME280;7004;48.206;16.402;2023-07-22T08:18:36;99706.63;;;27.67;35.38
13869;BME280;7004;48.206;16.402;2023-07-22T08:21:04;99707.63;;;28.19;35.36
13869;BME280;7004;48.206;16.402;2023-07-22T08:23:32;99711.94;;;29.12;34.24
13869;BME280;7004;48.206;16.402;2023-07-22T08:25:58;99720.72;;;27.16;36.53
13869;BME280;7004;48.206;16.402;2023-07-22T08:28:25;99725.63;;;25.81;38.07
13869;BME280;7004;48.206;16.402;2023-07-22T08:30:55;99728.41;;;27.06;37.33
13869;BME280;7004;48.206;16.402;2023-07-22T08:33:25;99709.75;;;27.37;35.74
13869;BME280;7004;48.206;16.402;2023-07-22T08:35:51;99723.28;;;26.69;36.39
13869;BME280;7004;48.206;16.402;2023-07-22T08:38:18;99723.59;;;26.88;35.94
13869;BME280;7004;48.206;16.402;2023-07-22T08:40:49;99728.38;;;26.51;36.72
13869;BME280;7004;48.206;16.402;2023-07-22T08:43:23;99719.22;;;28.66;35.34
13869;BME280;7004;48.206;16.402;2023-07-22T08:45:52;99735.22;;;26.40;37.17
13869;BME280;7004;48.206;16.402;2023-07-22T08:48:18;99732.78;;;26.93;36.77
13869;BME280;7004;48.206;16.402;2023-07-22T08:51:06;99727.00;;;26.20;37.11
13869;BME280;7004;48.206;16.402;2023-07-22T08:53:32;99723.81;;;26.93;35.68
13869;BME280;7004;48.206;16.402;2023-07-22T08:56:00;99725.34;;;29.00;33.28
13869;BME280;7004;48.206;16.402;2023-07-22T08:58:27;99718.94;;;29.26;32.99
13869;BME280;7004;48.206;16.402;2023-07-22T09:00:54;99724.34;;;28.36;34.49
13869;BME280;7004;48.206;16.402;2023-07-22T09:03:21;99726.03;;;28.44;34.71
13869;BME280;7004;48.206;16.402;2023-07-22T09:05:48;99727.94;;;28.10;34.22
13869;BME280;7004;48.206;16.402;2023-07-22T09:08:14;99729.09;;;29.12;33.50
13869;BME280;7004;48.206;16.402;2023-07-22T09:10:40;99729.59;;;28.11;33.64
13869;BME280;7004;48.206;16.402;2023-07-22T09:13:07;99729.25;;;28.72;32.58
13869;BME280;7004;48.206;16.402;2023-07-22T09:15:37;99730.81;;;29.38;32.57
13869;BME280;7004;48.206;16.402;2023-07-22T09:18:06;99733.53;;;27.29;32.96
13869;BME280;7004;48.206;16.402;2023-07-22T09:20:33;99737.22;;;28.67;31.93
13869;BME280;7004;48.206;16.402;2023-07-22T09:23:01;99742.13;;;26.77;33.14
13869;BME280;7004;48.206;16.402;2023-07-22T09:25:28;99740.19;;;29.04;31.01
13869;BME280;7004;48.206;16.402;2023-07-22T09:27:57;99736.91;;;28.30;31.61
13869;BME280;7004;48.206;16.402;2023-07-22T09:30:36;99737.94;;;29.39;30.15
13869;BME280;7004;48.206;16.402;2023-07-22T09:33:04;99735.06;;;27.91;30.88
13869;BME280;7004;48.206;16.402;2023-07-22T09:35:45;99736.53;;;28.85;30.02
13869;BME280;7004;48.206;16.402;2023-07-22T09:38:12;99735.84;;;28.90;30.42
13869;BME280;7004;48.206;16.402;2023-07-22T09:40:42;99742.53;;;28.29;31.99
13869;BME280;7004;48.206;16.402;2023-07-22T09:43:11;99740.53;;;27.10;31.56
13869;BME280;7004;48.206;16.402;2023-07-22T09:45:40;99739.78;;;27.22;31.55
13869;BME280;7004;48.206;16.402;2023-07-22T09:48:06;99733.66;;;26.24;34.11
13869;BME280;7004;48.206;16.402;2023-07-22T09:50:36;99737.47;;;26.02;33.29
13869;BME280;7004;48.206;16.402;2023-07-22T09:53:03;99737.75;;;28.18;31.62
13869;BME280;7004;48.206;16.402;2023-07-22T09:55:31;99737.97;;;27.96;31.83
13869;BME280;7004;48.206;16.402;2023-07-22T09:58:03;99737.09;;;29.01;31.01
13869;BME280;7004;48.206;16.402;2023-07-22T10:00:35;99737.28;;;27.28;31.14
13869;BME280;7004;48.206;16.402;2023-07-22T10:03:03;99735.19;;;26.33;30.89
13869;BME280;7004;48.206;16.402;2023-07-22T10:05:35;99725.22;;;27.70;31.58
13869;BME280;7004;48.206;16.402;2023-07-22T10:08:03;99721.44;;;27.38;31.87
13869;BME280;7004;48.206;16.402;2023-07-22T10:10:38;99722.78;;;27.00;31.44
13869;BME280;7004;48.206;16.402;2023-07-22T10:13:05;99721.72;;;28.74;30.79
13869;BME280;7004;48.206;16.402;2023-07-22T10:15:33;99719.78;;;27.50;30.77
13869;BME280;7004;48.206;16.402;2023-07-22T10:18:03;99727.81;;;28.70;30.45
13869;BME280;7004;48.206;16.402;2023-07-22T10:20:31;99708.72;;;27.58;31.84
13869;BME280;7004;48.206;16.402;2023-07-22T10:23:01;99708.91;;;29.27;30.30
13869;BME280;7004;48.206;16.402;2023-07-22T10:25:27;99707.94;;;29.14;29.56
13869;BME280;7004;48.206;16.402;2023-07-22T10:27:54;99705.34;;;29.26;29.34
13869;BME280;7004;48.206;16.402;2023-07-22T10:30:20;99691.53;;;30.03;28.62
13869;BME280;7004;48.206;16.402;2023-07-22T10:32:51;99701.44;;;28.70;28.61
13869;BME280;7004;48.206;16.402;2023-07-22T10:38:15;99696.06;;;29.34;28.87
13869;BME280;7004;48.206;16.402;2023-07-22T10:40:59;99691.28;;;28.46;29.71
13869;BME280;7004;48.206;16.402;2023-07-22T10:43:32;99696.31;;;29.32;28.59
13869;BME280;7004;48.206;16.402;2023-07-22T10:46:09;99696.53;;;28.41;30.70
13869;BME280;7004;48.206;16.402;2023-07-22T10:48:40;99689.28;;;28.08;30.98
13869;BME280;7004;48.206;16.402;2023-07-22T10:51:15;99684.50;;;29.70;29.61
13869;BME280;7004;48.206;16.402;2023-07-22T10:53:47;99693.88;;;27.74;29.86
13869;BME280;7004;48.206;16.402;2023-07-22T10:56:20;99675.19;;;30.03;28.74
13869;BME280;7004;48.206;16.402;2023-07-22T11:12:03;99663.59;;;29.89;27.96
13869;BME280;7004;48.206;16.402;2023-07-22T11:14:33;99670.28;;;29.68;27.79
13869;BME280;7004;48.206;16.402;2023-07-22T11:17:03;99668.81;;;29.40;28.74
13869;BME280;7004;48.206;16.402;2023-07-22T11:19:30;99675.66;;;29.75;28.79
13869;BME280;7004;48.206;16.402;2023-07-22T11:21:58;99678.75;;;28.31;28.80
13869;BME280;7004;48.206;16.402;2023-07-22T11:24:24;99680.75;;;28.63;28.96
13869;BME280;7004;48.206;16.402;2023-07-22T11:26:52;99673.88;;;29.37;28.65
13869;BME280;7004;48.206;16.402;2023-07-22T11:29:18;99671.16;;;28.60;28.79
13869;BME280;7004;48.206;16.402;2023-07-22T11:31:47;99656.91;;;29.35;28.10
13869;BME280;7004;48.206;16.402;2023-07-22T11:34:20;99645.53;;;30.80;27.93
13869;BME280;7004;48.206;16.402;2023-07-22T11:36:48;99651.91;;;31.46;27.24
13869;BME280;7004;48.206;16.402;2023-07-22T11:39:17;99655.41;;;30.63;28.39
13869;BME280;7004;48.206;16.402;2023-07-22T11:41:45;99642.47;;;30.21;27.53
13869;BME280;7004;48.206;16.402;2023-07-22T11:44:14;99642.72;;;30.57;27.42
13869;BME280;7004;48.206;16.402;2023-07-22T11:46:58;99635.22;;;29.47;29.12
13869;BME280;7004;48.206;16.402;2023-07-22T11:49:37;99634.41;;;30.63;27.19
13869;BME280;7004;48.206;16.402;2023-07-22T11:52:07;99631.97;;;30.43;27.33
13869;BME280;7004;48.206;16.402;2023-07-22T11:54:36;99628.53;;;30.48;28.31
13869;BME280;7004;48.206;16.402;2023-07-22T11:57:22;99630.19;;;29.75;30.29
13869;BME280;7004;48.206;16.402;2023-07-22T11:59:51;99626.97;;;30.89;28.55
13869;BME280;7004;48.206;16.402;2023-07-22T12:02:20;99624.69;;;31.28;27.02
13869;BME280;7004;48.206;16.402;2023-07-22T12:04:55;99623.63;;;30.57;27.54
13869;BME280;7004;48.206;16.402;2023-07-22T12:07:28;99611.88;;;30.86;26.78
13869;BME280;7004;48.206;16.402;2023-07-22T12:09:58;99616.56;;;30.98;27.11
13869;BME280;7004;48.206;16.402;2023-07-22T12:12:46;99606.34;;;31.94;26.18
13869;BME280;7004;48.206;16.402;2023-07-22T12:15:15;99606.75;;;31.20;26.26
13869;BME280;7004;48.206;16.402;2023-07-22T12:17:46;99614.63;;;31.40;26.02
13869;BME280;7004;48.206;16.402;2023-07-22T12:20:14;99606.59;;;31.03;25.94
13869;BME280;7004;48.206;16.402;2023-07-22T12:22:41;99601.59;;;30.40;26.57
13869;BME280;7004;48.206;16.402;2023-07-22T12:25:08;99602.53;;;29.97;26.79
13869;BME280;7004;48.206;16.402;2023-07-22T12:27:36;99602.94;;;31.09;25.91
13869;BME280;7004;48.206;16.402;2023-07-22T12:30:02;99602.28;;;31.85;25.38
13869;BME280;7004;48.206;16.402;2023-07-22T12:32:31;99601.72;;;30.45;25.95
13869;BME280;7004;48.206;16.402;2023-07-22T12:34:57;99603.06;;;31.03;25.57
13869;BME280;7004;48.206;16.402;2023-07-22T12:37:23;99603.56;;;32.06;25.54
13869;BME280;7004;48.206;16.402;2023-07-22T12:39:49;99605.09;;;31.31;25.36
13869;BME280;7004;48.206;16.402;2023-07-22T12:42:16;99603.59;;;30.63;25.94
13869;BME280;7004;48.206;16.402;2023-07-22T12:44:44;99599.06;;;31.64;25.84
13869;BME280;7004;48.206;16.402;2023-07-22T12:47:11;99593.75;;;30.92;25.62
13869;BME280;7004;48.206;16.402;2023-07-22T12:49:37;99591.63;;;30.94;25.94
13869;BME280;7004;48.206;16.402;2023-07-22T12:52:04;99591.00;;;30.13;25.72
13869;BME280;7004;48.206;16.402;2023-07-22T12:54:31;99590.75;;;29.34;26.86
13869;BME280;7004;48.206;16.402;2023-07-22T12:56:57;99595.16;;;29.79;25.90
13869;BME280;7004;48.206;16.402;2023-07-22T12:59:23;99586.91;;;30.22;24.24
13869;BME280;7004;48.206;16.402;2023-07-22T13:01:49;99571.81;;;30.68;24.31
13869;BME280;7004;48.206;16.402;2023-07-22T13:04:16;99584.97;;;30.90;25.92
13869;BME280;7004;48.206;16.402;2023-07-22T13:06:42;99584.19;;;29.86;26.10
13869;BME280;7004;48.206;16.402;2023-07-22T13:09:09;99577.31;;;30.20;25.87
13869;BME280;7004;48.206;16.402;2023-07-22T13:11:35;99576.72;;;29.99;25.92
13869;BME280;7004;48.206;16.402;2023-07-22T13:14:02;99576.47;;;29.57;26.94
13869;BME280;7004;48.206;16.402;2023-07-22T13:16:28;99576.16;;;30.46;26.35
13869;BME280;7004;48.206;16.402;2023-07-22T13:18:55;99571.41;;;29.86;25.41